sensor_id;sensor_type;location;lat;lon;timestamp;P1;durP1;ratioP1;P2;durP2;ratioP2
50900;SDS011;36879;51.416;6.678;2023-04-25T00:01:24;16.83;;;6.38;;
50900;SDS011;36879;51.416;6.678;2023-04-25T00:03:51;15.45;;;6.50;;
50900;SDS011;36879;51.416;6.678;2023-04-25T00:06:17;15.35;;;6.40;;
50900;SDS011;36879;51.416;6.678;2023-04-25T00:08:43;20.77;;;6.95;;
50900;SDS011;36879;51.416;6.678;2023-04-25T00:11:09;18.00;;;6.13;;
50900;SDS011;36879;51.416;6.678;2023-04-25T00:13:35;20.05;;;6.63;;
50900;SDS011;36879;51.416;6.678;2023-04-25T00:16:01;16.15;;;6.18;;
50900;SDS011;36879;51.416;6.678;2023-04-25T00:18:28;11.70;;;6.10;;
50900;SDS011;36879;51.416;6.678;2023-04-25T00:20:54;17.33;;;6.95;;
50900;SDS011;36879;51.416;6.678;2023-04-25T00:23:20;17.10;;;6.15;;
50900;SDS011;36879;51.416;6.678;2023-04-25T00:25:47;16.48;;;6.47;;
50900;SDS011;36879;51.416;6.678;2023-04-25T00:28:13;15.18;;;5.82;;
50900;SDS011;36879;51.416;6.678;2023-04-25T00:30:40;19.25;;;7.30;;
50900;SDS011;36879;51.416;6.678;2023-04-25T00:33:06;22.58;;;6.78;;
50900;SDS011;36879;51.416;6.678;2023-04-25T00:35:33;16.73;;;7.10;;
50900;SDS011;36879;51.416;6.678;2023-04-25T00:37:59;13.98;;;5.45;;
50900;SDS011;36879;51.416;6.678;2023-04-25T00:40:25;19.70;;;6.63;;
50900;SDS011;36879;51.416;6.678;2023-04-25T00:42:52;16.23;;;6.78;;
50900;SDS011;36879;51.416;6.678;2023-04-25T00:45:18;15.95;;;7.00;;
50900;SDS011;36879;51.416;6.678;2023-04-25T00:47:45;13.32;;;6.10;;
50900;SDS011;36879;51.416;6.678;2023-04-25T00:50:12;18.40;;;7.15;;
50900;SDS011;36879;51.416;6.678;2023-04-25T00:52:39;13.60;;;6.18;;
50900;SDS011;36879;51.416;6.678;2023-04-25T00:55:06;19.73;;;8.10;;
50900;SDS011;36879;51.416;6.678;2023-04-25T00:57:32;12.23;;;5.38;;
50900;SDS011;36879;51.416;6.678;2023-04-25T00:59:58;17.30;;;5.70;;
50900;SDS011;36879;51.416;6.678;2023-04-25T01:02:24;14.75;;;5.57;;
50900;SDS011;36879;51.416;6.678;2023-04-25T01:04:52;16.27;;;6.45;;
50900;SDS011;36879;51.416;6.678;2023-04-25T01:07:18;12.05;;;5.70;;
50900;SDS011;36879;51.416;6.678;2023-04-25T01:09:44;20.77;;;6.35;;
50900;SDS011;36879;51.416;6.678;2023-04-25T01:12:10;11.50;;;5.70;;
50900;SDS011;36879;51.416;6.678;2023-04-25T01:14:36;16.08;;;5.50;;
50900;SDS011;36879;51.416;6.678;2023-04-25T01:17:02;14.52;;;6.15;;
50900;SDS011;36879;51.416;6.678;2023-04-25T01:19:28;14.65;;;6.07;;
50900;SDS011;36879;51.416;6.678;2023-04-25T01:21:55;16.42;;;6.38;;
50900;SDS011;36879;51.416;6.678;2023-04-25T01:24:21;11.60;;;5.50;;
50900;SDS011;36879;51.416;6.678;2023-04-25T01:26:48;12.93;;;6.03;;
50900;SDS011;36879;51.416;6.678;2023-04-25T01:29:18;10.30;;;5.45;;
50900;SDS011;36879;51.416;6.678;2023-04-25T01:31:44;15.30;;;6.15;;
50900;SDS011;36879;51.416;6.678;2023-04-25T01:34:11;12.25;;;6.18;;
50900;SDS011;36879;51.416;6.678;2023-04-25T01:36:37;16.75;;;5.25;;
50900;SDS011;36879;51.416;6.678;2023-04-25T01:39:03;14.45;;;6.15;;
50900;SDS011;36879;51.416;6.678;2023-04-25T01:41:29;13.98;;;5.50;;
50900;SDS011;36879;51.416;6.678;2023-04-25T01:43:55;11.77;;;5.30;;
50900;SDS011;36879;51.416;6.678;2023-04-25T01:46:22;15.35;;;6.10;;
50900;SDS011;36879;51.416;6.678;2023-04-25T01:48:48;10.32;;;5.22;;
50900;SDS011;36879;51.416;6.678;2023-04-25T01:51:14;13.85;;;5.30;;
50900;SDS011;36879;51.416;6.678;2023-04-25T01:53:40;12.50;;;5.38;;
50900;SDS011;36879;51.416;6.678;2023-04-25T01:56:06;13.65;;;5.45;;
50900;SDS011;36879;51.416;6.678;2023-04-25T01:58:32;13.27;;;5.25;;
50900;SDS011;36879;51.416;6.678;2023-04-25T02:00:58;10.35;;;5.78;;
50900;SDS011;36879;51.416;6.678;2023-04-25T02:03:24;12.52;;;5.28;;
50900;SDS011;36879;51.416;6.678;2023-04-25T02:05:50;14.63;;;5.20;;
50900;SDS011;36879;51.416;6.678;2023-04-25T02:08:16;10.90;;;5.35;;
50900;SDS011;36879;51.416;6.678;2023-04-25T02:10:43;11.07;;;5.50;;
50900;SDS011;36879;51.416;6.678;2023-04-25T02:13:09;19.40;;;6.20;;
50900;SDS011;36879;51.416;6.678;2023-04-25T02:15:35;13.00;;;5.57;;
50900;SDS011;36879;51.416;6.678;2023-04-25T02:18:01;14.43;;;5.82;;
50900;SDS011;36879;51.416;6.678;2023-04-25T02:20:28;13.40;;;5.32;;
50900;SDS011;36879;51.416;6.678;2023-04-25T02:22:54;9.80;;;4.65;;
50900;SDS011;36879;51.416;6.678;2023-04-25T02:25:20;8.65;;;5.03;;
50900;SDS011;36879;51.416;6.678;2023-04-25T02:27:46;9.32;;;5.07;;
50900;SDS011;36879;51.416;6.678;2023-04-25T02:30:12;11.38;;;4.88;;
50900;SDS011;36879;51.416;6.678;2023-04-25T02:32:39;11.40;;;4.95;;
50900;SDS011;36879;51.416;6.678;2023-04-25T02:35:05;12.07;;;4.90;;
50900;SDS011;36879;51.416;6.678;2023-04-25T02:37:31;16.88;;;5.50;;
50900;SDS011;36879;51.416;6.678;2023-04-25T02:39:58;13.20;;;4.75;;
50900;SDS011;36879;51.416;6.678;2023-04-25T02:42:24;11.85;;;5.30;;
50900;SDS011;36879;51.416;6.678;2023-04-25T02:44:50;12.32;;;4.60;;
50900;SDS011;36879;51.416;6.678;2023-04-25T02:47:16;16.15;;;5.95;;
50900;SDS011;36879;51.416;6.678;2023-04-25T02:49:42;15.65;;;5.35;;
50900;SDS011;36879;51.416;6.678;2023-04-25T02:52:07;15.10;;;5.50;;
50900;SDS011;36879;51.416;6.678;2023-04-25T02:54:34;13.32;;;6.25;;
50900;SDS011;36879;51.416;6.678;2023-04-25T02:57:00;13.93;;;4.95;;
50900;SDS011;36879;51.416;6.678;2023-04-25T02:59:27;20.77;;;6.05;;
50900;SDS011;36879;51.416;6.678;2023-04-25T03:01:53;10.65;;;4.22;;
50900;SDS011;36879;51.416;6.678;2023-04-25T03:04:19;15.20;;;5.80;;
50900;SDS011;36879;51.416;6.678;2023-04-25T03:06:46;18.83;;;6.28;;
50900;SDS011;36879;51.416;6.678;2023-04-25T03:09:11;11.20;;;6.18;;
50900;SDS011;36879;51.416;6.678;2023-04-25T03:11:38;15.45;;;6.47;;
50900;SDS011;36879;51.416;6.678;2023-04-25T03:14:04;15.23;;;6.07;;
50900;SDS011;36879;51.416;6.678;2023-04-25T03:16:30;16.33;;;5.22;;
50900;SDS011;36879;51.416;6.678;2023-04-25T03:18:56;15.60;;;5.60;;
50900;SDS011;36879;51.416;6.678;2023-04-25T03:21:22;10.95;;;5.63;;
50900;SDS011;36879;51.416;6.678;2023-04-25T03:23:48;12.38;;;5.63;;
50900;SDS011;36879;51.416;6.678;2023-04-25T03:26:15;19.95;;;6.22;;
50900;SDS011;36879;51.416;6.678;2023-04-25T03:28:41;18.73;;;5.30;;
50900;SDS011;36879;51.416;6.678;2023-04-25T03:31:07;18.17;;;6.32;;
50900;SDS011;36879;51.416;6.678;2023-04-25T03:33:33;14.68;;;6.07;;
50900;SDS011;36879;51.416;6.678;2023-04-25T03:35:59;11.15;;;5.53;;
50900;SDS011;36879;51.416;6.678;2023-04-25T03:38:25;16.50;;;5.50;;
50900;SDS011;36879;51.416;6.678;2023-04-25T03:40:51;16.48;;;6.32;;
50900;SDS011;36879;51.416;6.678;2023-04-25T03:43:17;17.98;;;6.90;;
50900;SDS011;36879;51.416;6.678;2023-04-25T03:45:43;17.05;;;6.30;;
50900;SDS011;36879;51.416;6.678;2023-04-25T03:48:10;20.48;;;5.78;;
50900;SDS011;36879;51.416;6.678;2023-04-25T03:50:37;15.65;;;5.97;;
50900;SDS011;36879;51.416;6.678;2023-04-25T03:53:03;12.98;;;6.18;;
50900;SDS011;36879;51.416;6.678;2023-04-25T03:55:29;11.82;;;5.63;;
50900;SDS011;36879;51.416;6.678;2023-04-25T03:57:55;18.15;;;6.18;;
50900;SDS011;36879;51.416;6.678;2023-04-25T04:00:22;13.18;;;5.53;;
50900;SDS011;36879;51.416;6.678;2023-04-25T04:02:48;19.13;;;7.03;;
50900;SDS011;36879;51.416;6.678;2023-04-25T04:05:14;16.23;;;5.88;;
50900;SDS011;36879;51.416;6.678;2023-04-25T04:07:40;13.20;;;5.10;;
50900;SDS011;36879;51.416;6.678;2023-04-25T04:10:08;19.63;;;6.45;;
50900;SDS011;36879;51.416;6.678;2023-04-25T04:12:34;16.88;;;6.53;;
50900;SDS011;36879;51.416;6.678;2023-04-25T04:15:00;13.48;;;5.25;;
50900;SDS011;36879;51.416;6.678;2023-04-25T04:17:26;16.13;;;6.15;;
50900;SDS011;36879;51.416;6.678;2023-04-25T04:19:52;20.48;;;6.70;;
50900;SDS011;36879;51.416;6.678;2023-04-25T04:22:18;15.45;;;6.72;;
50900;SDS011;36879;51.416;6.678;2023-04-25T04:24:44;15.27;;;5.78;;
50900;SDS011;36879;51.416;6.678;2023-04-25T04:27:11;23.95;;;7.13;;
50900;SDS011;36879;51.416;6.678;2023-04-25T04:29:37;16.23;;;5.47;;
50900;SDS011;36879;51.416;6.678;2023-04-25T04:32:03;17.08;;;7.03;;
50900;SDS011;36879;51.416;6.678;2023-04-25T04:34:30;17.23;;;6.15;;
50900;SDS011;36879;51.416;6.678;2023-04-25T04:36:56;27.73;;;8.60;;
50900;SDS011;36879;51.416;6.678;2023-04-25T04:39:22;21.65;;;7.90;;
50900;SDS011;36879;51.416;6.678;2023-04-25T04:41:48;24.77;;;7.00;;
50900;SDS011;36879;51.416;6.678;2023-04-25T04:44:15;17.27;;;7.13;;
50900;SDS011;36879;51.416;6.678;2023-04-25T04:46:41;17.13;;;6.75;;
50900;SDS011;36879;51.416;6.678;2023-04-25T04:49:09;15.50;;;6.30;;
50900;SDS011;36879;51.416;6.678;2023-04-25T04:51:35;20.77;;;6.70;;
50900;SDS011;36879;51.416;6.678;2023-04-25T04:54:02;15.40;;;7.15;;
50900;SDS011;36879;51.416;6.678;2023-04-25T04:56:31;17.67;;;7.03;;
50900;SDS011;36879;51.416;6.678;2023-04-25T04:58:58;28.02;;;7.82;;
50900;SDS011;36879;51.416;6.678;2023-04-25T05:01:24;21.95;;;8.30;;
50900;SDS011;36879;51.416;6.678;2023-04-25T05:03:50;23.35;;;8.43;;
50900;SDS011;36879;51.416;6.678;2023-04-25T05:06:17;22.38;;;7.68;;
50900;SDS011;36879;51.416;6.678;2023-04-25T05:08:43;22.75;;;8.20;;
50900;SDS011;36879;51.416;6.678;2023-04-25T05:11:09;24.98;;;7.88;;
50900;SDS011;36879;51.416;6.678;2023-04-25T05:13:35;23.20;;;8.00;;
50900;SDS011;36879;51.416;6.678;2023-04-25T05:16:01;28.40;;;8.32;;
50900;SDS011;36879;51.416;6.678;2023-04-25T05:18:27;20.42;;;7.50;;
50900;SDS011;36879;51.416;6.678;2023-04-25T05:20:53;23.17;;;8.23;;
50900;SDS011;36879;51.416;6.678;2023-04-25T05:23:19;29.52;;;6.93;;
50900;SDS011;36879;51.416;6.678;2023-04-25T05:25:45;21.65;;;6.07;;
50900;SDS011;36879;51.416;6.678;2023-04-25T05:28:12;24.50;;;7.93;;
50900;SDS011;36879;51.416;6.678;2023-04-25T05:30:38;31.20;;;7.75;;
50900;SDS011;36879;51.416;6.678;2023-04-25T05:33:04;23.98;;;7.60;;
50900;SDS011;36879;51.416;6.678;2023-04-25T05:35:30;20.58;;;6.93;;
50900;SDS011;36879;51.416;6.678;2023-04-25T05:37:56;17.08;;;7.28;;
50900;SDS011;36879;51.416;6.678;2023-04-25T05:40:22;16.65;;;6.25;;
50900;SDS011;36879;51.416;6.678;2023-04-25T05:42:48;18.05;;;7.15;;
50900;SDS011;36879;51.416;6.678;2023-04-25T05:45:14;20.65;;;6.07;;
50900;SDS011;36879;51.416;6.678;2023-04-25T05:47:40;15.07;;;6.28;;
50900;SDS011;36879;51.416;6.678;2023-04-25T05:50:06;19.30;;;6.45;;
50900;SDS011;36879;51.416;6.678;2023-04-25T05:52:33;17.98;;;7.57;;
50900;SDS011;36879;51.416;6.678;2023-04-25T05:54:59;15.05;;;5.32;;
50900;SDS011;36879;51.416;6.678;2023-04-25T05:57:26;17.30;;;5.57;;
50900;SDS011;36879;51.416;6.678;2023-04-25T05:59:52;15.60;;;6.47;;
50900;SDS011;36879;51.416;6.678;2023-04-25T06:02:18;14.48;;;4.95;;
50900;SDS011;36879;51.416;6.678;2023-04-25T06:04:45;25.25;;;6.57;;
50900;SDS011;36879;51.416;6.678;2023-04-25T06:07:11;13.82;;;4.50;;
50900;SDS011;36879;51.416;6.678;2023-04-25T06:09:38;17.27;;;5.97;;
50900;SDS011;36879;51.416;6.678;2023-04-25T06:12:05;11.65;;;5.03;;
50900;SDS011;36879;51.416;6.678;2023-04-25T06:14:31;15.40;;;5.65;;
50900;SDS011;36879;51.416;6.678;2023-04-25T06:16:57;15.43;;;4.72;;
50900;SDS011;36879;51.416;6.678;2023-04-25T06:19:23;11.70;;;4.68;;
50900;SDS011;36879;51.416;6.678;2023-04-25T06:21:49;18.92;;;5.22;;
50900;SDS011;36879;51.416;6.678;2023-04-25T06:24:15;14.13;;;4.30;;
50900;SDS011;36879;51.416;6.678;2023-04-25T06:26:41;14.57;;;5.47;;
50900;SDS011;36879;51.416;6.678;2023-04-25T06:29:07;11.32;;;3.80;;
50900;SDS011;36879;51.416;6.678;2023-04-25T06:31:34;14.90;;;5.05;;
50900;SDS011;36879;51.416;6.678;2023-04-25T06:34:00;13.07;;;4.25;;
50900;SDS011;36879;51.416;6.678;2023-04-25T06:36:26;16.15;;;5.22;;
50900;SDS011;36879;51.416;6.678;2023-04-25T06:38:52;13.57;;;5.00;;
50900;SDS011;36879;51.416;6.678;2023-04-25T06:41:19;17.42;;;5.13;;
50900;SDS011;36879;51.416;6.678;2023-04-25T06:43:45;12.40;;;4.32;;
50900;SDS011;36879;51.416;6.678;2023-04-25T06:46:11;10.93;;;4.15;;
50900;SDS011;36879;51.416;6.678;2023-04-25T06:48:37;21.73;;;5.63;;
50900;SDS011;36879;51.416;6.678;2023-04-25T06:51:04;14.65;;;5.22;;
50900;SDS011;36879;51.416;6.678;2023-04-25T06:53:30;15.05;;;3.90;;
50900;SDS011;36879;51.416;6.678;2023-04-25T06:55:56;10.23;;;4.63;;
50900;SDS011;36879;51.416;6.678;2023-04-25T06:58:22;11.35;;;3.85;;
50900;SDS011;36879;51.416;6.678;2023-04-25T07:00:47;15.85;;;3.67;;
50900;SDS011;36879;51.416;6.678;2023-04-25T07:03:13;11.02;;;4.13;;
50900;SDS011;36879;51.416;6.678;2023-04-25T07:05:40;12.05;;;4.85;;
50900;SDS011;36879;51.416;6.678;2023-04-25T07:08:06;14.27;;;5.00;;
50900;SDS011;36879;51.416;6.678;2023-04-25T07:10:32;14.35;;;4.57;;
50900;SDS011;36879;51.416;6.678;2023-04-25T07:12:58;9.65;;;3.30;;
50900;SDS011;36879;51.416;6.678;2023-04-25T07:15:24;11.18;;;3.75;;
50900;SDS011;36879;51.416;6.678;2023-04-25T07:17:50;17.95;;;4.07;;
50900;SDS011;36879;51.416;6.678;2023-04-25T07:20:16;13.93;;;3.58;;
50900;SDS011;36879;51.416;6.678;2023-04-25T07:22:42;10.50;;;3.15;;
50900;SDS011;36879;51.416;6.678;2023-04-25T07:25:09;12.77;;;3.53;;
50900;SDS011;36879;51.416;6.678;2023-04-25T07:27:35;8.35;;;3.38;;
50900;SDS011;36879;51.416;6.678;2023-04-25T07:30:01;11.00;;;3.88;;
50900;SDS011;36879;51.416;6.678;2023-04-25T07:32:28;13.55;;;3.75;;
50900;SDS011;36879;51.416;6.678;2023-04-25T07:34:54;13.25;;;4.45;;
50900;SDS011;36879;51.416;6.678;2023-04-25T07:37:20;13.50;;;3.38;;
50900;SDS011;36879;51.416;6.678;2023-04-25T07:39:46;10.48;;;3.60;;
50900;SDS011;36879;51.416;6.678;2023-04-25T07:42:13;14.43;;;3.30;;
50900;SDS011;36879;51.416;6.678;2023-04-25T07:44:39;9.45;;;3.22;;
50900;SDS011;36879;51.416;6.678;2023-04-25T07:47:06;12.98;;;4.65;;
50900;SDS011;36879;51.416;6.678;2023-04-25T07:49:33;7.93;;;2.90;;
50900;SDS011;36879;51.416;6.678;2023-04-25T07:52:03;9.05;;;2.30;;
50900;SDS011;36879;51.416;6.678;2023-04-25T07:54:29;12.10;;;2.90;;
50900;SDS011;36879;51.416;6.678;2023-04-25T07:56:55;7.43;;;2.65;;
50900;SDS011;36879;51.416;6.678;2023-04-25T07:59:21;8.73;;;2.17;;
50900;SDS011;36879;51.416;6.678;2023-04-25T08:01:47;12.45;;;2.65;;
50900;SDS011;36879;51.416;6.678;2023-04-25T08:04:13;9.73;;;3.33;;
50900;SDS011;36879;51.416;6.678;2023-04-25T08:06:39;7.25;;;1.98;;
50900;SDS011;36879;51.416;6.678;2023-04-25T08:09:06;6.50;;;3.35;;
50900;SDS011;36879;51.416;6.678;2023-04-25T08:11:33;7.45;;;2.63;;
50900;SDS011;36879;51.416;6.678;2023-04-25T08:13:59;7.63;;;2.95;;
50900;SDS011;36879;51.416;6.678;2023-04-25T08:16:25;6.80;;;2.17;;
50900;SDS011;36879;51.416;6.678;2023-04-25T08:18:51;10.77;;;2.60;;
50900;SDS011;36879;51.416;6.678;2023-04-25T08:21:17;9.90;;;3.40;;
50900;SDS011;36879;51.416;6.678;2023-04-25T08:23:43;11.13;;;2.80;;
50900;SDS011;36879;51.416;6.678;2023-04-25T08:26:09;6.15;;;2.15;;
50900;SDS011;36879;51.416;6.678;2023-04-25T08:28:35;8.18;;;2.55;;
50900;SDS011;36879;51.416;6.678;2023-04-25T08:31:01;10.05;;;1.52;;
50900;SDS011;36879;51.416;6.678;2023-04-25T08:33:27;10.35;;;2.72;;
50900;SDS011;36879;51.416;6.678;2023-04-25T08:35:54;5.13;;;1.67;;
50900;SDS011;36879;51.416;6.678;2023-04-25T08:38:20;10.40;;;2.30;;
50900;SDS011;36879;51.416;6.678;2023-04-25T08:40:48;6.38;;;1.77;;
50900;SDS011;36879;51.416;6.678;2023-04-25T08:43:15;10.85;;;1.95;;
50900;SDS011;36879;51.416;6.678;2023-04-25T08:45:43;8.60;;;2.22;;
50900;SDS011;36879;51.416;6.678;2023-04-25T08:48:11;7.88;;;2.13;;
50900;SDS011;36879;51.416;6.678;2023-04-25T08:50:58;6.53;;;1.83;;
50900;SDS011;36879;51.416;6.678;2023-04-25T08:53:28;6.97;;;1.70;;
50900;SDS011;36879;51.416;6.678;2023-04-25T08:55:55;7.65;;;1.90;;
50900;SDS011;36879;51.416;6.678;2023-04-25T08:58:21;9.70;;;2.67;;
50900;SDS011;36879;51.416;6.678;2023-04-25T09:00:49;8.65;;;2.30;;
50900;SDS011;36879;51.416;6.678;2023-04-25T09:03:16;7.68;;;2.22;;
50900;SDS011;36879;51.416;6.678;2023-04-25T09:05:42;6.47;;;1.58;;
50900;SDS011;36879;51.416;6.678;2023-04-25T09:08:08;6.78;;;2.35;;
50900;SDS011;36879;51.416;6.678;2023-04-25T09:10:34;7.82;;;1.98;;
50900;SDS011;36879;51.416;6.678;2023-04-25T09:13:04;5.07;;;1.80;;
50900;SDS011;36879;51.416;6.678;2023-04-25T09:15:31;5.95;;;2.30;;
50900;SDS011;36879;51.416;6.678;2023-04-25T09:17:57;6.53;;;1.88;;
50900;SDS011;36879;51.416;6.678;2023-04-25T09:20:23;6.07;;;1.80;;
50900;SDS011;36879;51.416;6.678;2023-04-25T09:22:50;7.82;;;1.85;;
50900;SDS011;36879;51.416;6.678;2023-04-25T09:25:26;6.53;;;1.85;;
50900;SDS011;36879;51.416;6.678;2023-04-25T09:27:52;9.15;;;1.95;;
50900;SDS011;36879;51.416;6.678;2023-04-25T09:30:28;9.60;;;1.98;;
50900;SDS011;36879;51.416;6.678;2023-04-25T09:35:24;5.97;;;1.80;;
50900;SDS011;36879;51.416;6.678;2023-04-25T09:37:51;6.57;;;1.92;;
50900;SDS011;36879;51.416;6.678;2023-04-25T09:40:17;7.47;;;1.80;;
50900;SDS011;36879;51.416;6.678;2023-04-25T09:42:43;5.63;;;1.80;;
50900;SDS011;36879;51.416;6.678;2023-04-25T09:45:09;5.60;;;1.70;;
50900;SDS011;36879;51.416;6.678;2023-04-25T09:47:40;6.13;;;1.48;;
50900;SDS011;36879;51.416;6.678;2023-04-25T09:50:15;6.38;;;1.98;;
50900;SDS011;36879;51.416;6.678;2023-04-25T09:52:41;5.88;;;1.10;;
50900;SDS011;36879;51.416;6.678;2023-04-25T09:55:08;8.27;;;2.50;;
50900;SDS011;36879;51.416;6.678;2023-04-25T09:57:33;4.68;;;2.30;;
50900;SDS011;36879;51.416;6.678;2023-04-25T10:00:04;5.30;;;1.50;;
50900;SDS011;36879;51.416;6.678;2023-04-25T10:02:34;3.40;;;1.58;;
50900;SDS011;36879;51.416;6.678;2023-04-25T10:05:01;5.03;;;1.50;;
50900;SDS011;36879;51.416;6.678;2023-04-25T10:07:29;6.15;;;1.75;;
50900;SDS011;36879;51.416;6.678;2023-04-25T10:09:59;5.95;;;1.33;;
50900;SDS011;36879;51.416;6.678;2023-04-25T10:12:28;5.38;;;1.65;;
50900;SDS011;36879;51.416;6.678;2023-04-25T10:14:56;7.45;;;1.55;;
50900;SDS011;36879;51.416;6.678;2023-04-25T10:17:24;10.10;;;2.30;;
50900;SDS011;36879;51.416;6.678;2023-04-25T10:19:52;4.72;;;1.48;;
50900;SDS011;36879;51.416;6.678;2023-04-25T10:22:28;3.72;;;1.45;;
50900;SDS011;36879;51.416;6.678;2023-04-25T10:24:55;5.13;;;1.23;;
50900;SDS011;36879;51.416;6.678;2023-04-25T10:27:22;5.22;;;1.67;;
50900;SDS011;36879;51.416;6.678;2023-04-25T10:32:30;5.18;;;1.20;;
50900;SDS011;36879;51.416;6.678;2023-04-25T10:34:57;4.60;;;1.60;;
50900;SDS011;36879;51.416;6.678;2023-04-25T10:37:23;4.97;;;1.73;;
50900;SDS011;36879;51.416;6.678;2023-04-25T10:39:50;4.68;;;1.63;;
50900;SDS011;36879;51.416;6.678;2023-04-25T10:42:18;5.78;;;1.40;;
50900;SDS011;36879;51.416;6.678;2023-04-25T10:45:00;5.22;;;1.42;;
50900;SDS011;36879;51.416;6.678;2023-04-25T10:47:34;4.35;;;1.48;;
50900;SDS011;36879;51.416;6.678;2023-04-25T10:50:04;6.88;;;1.65;;
50900;SDS011;36879;51.416;6.678;2023-04-25T10:52:32;2.97;;;1.17;;
50900;SDS011;36879;51.416;6.678;2023-04-25T10:54:58;6.57;;;1.90;;
50900;SDS011;36879;51.416;6.678;2023-04-25T10:59:57;5.85;;;1.83;;
50900;SDS011;36879;51.416;6.678;2023-04-25T11:02:25;7.78;;;1.60;;
50900;SDS011;36879;51.416;6.678;2023-04-25T11:04:52;5.63;;;1.30;;
50900;SDS011;36879;51.416;6.678;2023-04-25T11:10:03;5.43;;;1.63;;
50900;SDS011;36879;51.416;6.678;2023-04-25T11:12:33;5.18;;;1.73;;
50900;SDS011;36879;51.416;6.678;2023-04-25T11:15:03;3.05;;;1.40;;
50900;SDS011;36879;51.416;6.678;2023-04-25T11:17:29;3.70;;;1.52;;
50900;SDS011;36879;51.416;6.678;2023-04-25T11:19:55;3.22;;;1.20;;
50900;SDS011;36879;51.416;6.678;2023-04-25T11:22:22;4.05;;;1.25;;
50900;SDS011;36879;51.416;6.678;2023-04-25T11:24:48;2.72;;;1.25;;
50900;SDS011;36879;51.416;6.678;2023-04-25T11:27:14;5.65;;;1.40;;
50900;SDS011;36879;51.416;6.678;2023-04-25T11:29:40;6.25;;;1.65;;
50900;SDS011;36879;51.416;6.678;2023-04-25T11:32:06;6.03;;;1.95;;
50900;SDS011;36879;51.416;6.678;2023-04-25T11:34:32;7.55;;;2.30;;
50900;SDS011;36879;51.416;6.678;2023-04-25T11:36:59;6.55;;;2.65;;
50900;SDS011;36879;51.416;6.678;2023-04-25T11:39:25;7.00;;;2.28;;
50900;SDS011;36879;51.416;6.678;2023-04-25T11:41:52;7.18;;;2.15;;
50900;SDS011;36879;51.416;6.678;2023-04-25T11:44:18;6.18;;;2.10;;
50900;SDS011;36879;51.416;6.678;2023-04-25T11:46:45;6.88;;;2.05;;
50900;SDS011;36879;51.416;6.678;2023-04-25T11:49:11;8.88;;;2.45;;
50900;SDS011;36879;51.416;6.678;2023-04-25T11:51:45;10.50;;;2.17;;
50900;SDS011;36879;51.416;6.678;2023-04-25T11:54:12;6.07;;;2.47;;
50900;SDS011;36879;51.416;6.678;2023-04-25T11:56:44;7.20;;;2.17;;
50900;SDS011;36879;51.416;6.678;2023-04-25T11:59:10;13.55;;;2.95;;
50900;SDS011;36879;51.416;6.678;2023-04-25T12:01:37;11.20;;;2.80;;
50900;SDS011;36879;51.416;6.678;2023-04-25T12:04:13;4.20;;;1.90;;
50900;SDS011;36879;51.416;6.678;2023-04-25T12:06:39;5.80;;;1.95;;
50900;SDS011;36879;51.416;6.678;2023-04-25T12:09:10;6.43;;;2.70;;
50900;SDS011;36879;51.416;6.678;2023-04-25T12:11:40;7.03;;;2.50;;
50900;SDS011;36879;51.416;6.678;2023-04-25T12:14:07;5.22;;;2.05;;
50900;SDS011;36879;51.416;6.678;2023-04-25T12:16:43;7.82;;;3.13;;
50900;SDS011;36879;51.416;6.678;2023-04-25T12:19:09;4.30;;;2.10;;
50900;SDS011;36879;51.416;6.678;2023-04-25T12:21:36;6.97;;;2.58;;
50900;SDS011;36879;51.416;6.678;2023-04-25T12:29:23;6.72;;;2.53;;
50900;SDS011;36879;51.416;6.678;2023-04-25T12:31:50;6.40;;;2.45;;
50900;SDS011;36879;51.416;6.678;2023-04-25T12:34:19;10.38;;;2.58;;
50900;SDS011;36879;51.416;6.678;2023-04-25T12:36:46;7.28;;;2.10;;
50900;SDS011;36879;51.416;6.678;2023-04-25T12:39:19;4.93;;;2.45;;
50900;SDS011;36879;51.416;6.678;2023-04-25T12:41:46;5.80;;;2.00;;
50900;SDS011;36879;51.416;6.678;2023-04-25T12:44:12;6.03;;;2.00;;
50900;SDS011;36879;51.416;6.678;2023-04-25T12:46:39;5.13;;;1.92;;
50900;SDS011;36879;51.416;6.678;2023-04-25T12:49:06;5.63;;;1.80;;
50900;SDS011;36879;51.416;6.678;2023-04-25T12:51:33;5.00;;;1.90;;
50900;SDS011;36879;51.416;6.678;2023-04-25T12:53:59;6.70;;;1.73;;
50900;SDS011;36879;51.416;6.678;2023-04-25T12:56:25;5.50;;;2.20;;
50900;SDS011;36879;51.416;6.678;2023-04-25T12:58:52;5.47;;;1.98;;
50900;SDS011;36879;51.416;6.678;2023-04-25T13:01:18;7.25;;;2.10;;
50900;SDS011;36879;51.416;6.678;2023-04-25T13:03:45;6.40;;;1.80;;
50900;SDS011;36879;51.416;6.678;2023-04-25T13:06:11;3.30;;;1.40;;
50900;SDS011;36879;51.416;6.678;2023-04-25T13:08:38;7.05;;;1.63;;
50900;SDS011;36879;51.416;6.678;2023-04-25T13:11:04;3.47;;;1.30;;
50900;SDS011;36879;51.416;6.678;2023-04-25T13:13:30;5.53;;;1.70;;
50900;SDS011;36879;51.416;6.678;2023-04-25T13:15:57;4.65;;;1.40;;
50900;SDS011;36879;51.416;6.678;2023-04-25T13:18:23;5.25;;;1.50;;
50900;SDS011;36879;51.416;6.678;2023-04-25T13:20:52;3.63;;;1.10;;
50900;SDS011;36879;51.416;6.678;2023-04-25T13:23:19;5.25;;;1.67;;
50900;SDS011;36879;51.416;6.678;2023-04-25T13:25:45;5.35;;;1.27;;
50900;SDS011;36879;51.416;6.678;2023-04-25T13:28:12;7.78;;;1.73;;
50900;SDS011;36879;51.416;6.678;2023-04-25T13:30:38;5.25;;;1.70;;
50900;SDS011;36879;51.416;6.678;2023-04-25T13:33:04;9.57;;;1.55;;
50900;SDS011;36879;51.416;6.678;2023-04-25T13:35:31;5.40;;;1.50;;
50900;SDS011;36879;51.416;6.678;2023-04-25T13:37:58;5.88;;;1.35;;
50900;SDS011;36879;51.416;6.678;2023-04-25T13:40:24;7.22;;;1.95;;
50900;SDS011;36879;51.416;6.678;2023-04-25T13:42:51;4.63;;;1.45;;
50900;SDS011;36879;51.416;6.678;2023-04-25T13:45:17;4.53;;;1.45;;
50900;SDS011;36879;51.416;6.678;2023-04-25T13:47:43;4.30;;;2.05;;
50900;SDS011;36879;51.416;6.678;2023-04-25T13:50:10;3.75;;;1.48;;
50900;SDS011;36879;51.416;6.678;2023-04-25T13:52:36;6.47;;;1.95;;
50900;SDS011;36879;51.416;6.678;2023-04-25T13:55:02;6.55;;;1.63;;
50900;SDS011;36879;51.416;6.678;2023-04-25T13:57:29;4.50;;;1.70;;
50900;SDS011;36879;51.416;6.678;2023-04-25T13:59:56;5.40;;;1.70;;
50900;SDS011;36879;51.416;6.678;2023-04-25T14:02:22;5.38;;;1.63;;
50900;SDS011;36879;51.416;6.678;2023-04-25T14:04:48;4.97;;;1.35;;
50900;SDS011;36879;51.416;6.678;2023-04-25T14:07:14;4.30;;;1.35;;
50900;SDS011;36879;51.416;6.678;2023-04-25T14:09:45;8.88;;;1.67;;
50900;SDS011;36879;51.416;6.678;2023-04-25T14:12:11;4.45;;;1.73;;
50900;SDS011;36879;51.416;6.678;2023-04-25T14:14:37;8.40;;;2.00;;
50900;SDS011;36879;51.416;6.678;2023-04-25T14:17:03;3.58;;;1.27;;
50900;SDS011;36879;51.416;6.678;2023-04-25T14:19:30;3.75;;;1.40;;
50900;SDS011;36879;51.416;6.678;2023-04-25T14:21:56;2.55;;;0.93;;
50900;SDS011;36879;51.416;6.678;2023-04-25T14:24:22;4.93;;;1.45;;
50900;SDS011;36879;51.416;6.678;2023-04-25T14:26:48;6.30;;;1.48;;
50900;SDS011;36879;51.416;6.678;2023-04-25T14:29:14;3.80;;;1.25;;
50900;SDS011;36879;51.416;6.678;2023-04-25T14:31:40;8.50;;;2.15;;
50900;SDS011;36879;51.416;6.678;2023-04-25T14:34:06;3.63;;;1.85;;
50900;SDS011;36879;51.416;6.678;2023-04-25T14:36:32;6.65;;;1.48;;
50900;SDS011;36879;51.416;6.678;2023-04-25T14:38:58;3.33;;;0.85;;
50900;SDS011;36879;51.416;6.678;2023-04-25T14:41:25;4.47;;;1.35;;
50900;SDS011;36879;51.416;6.678;2023-04-25T14:43:51;2.90;;;1.15;;
50900;SDS011;36879;51.416;6.678;2023-04-25T14:46:18;6.05;;;1.48;;
50900;SDS011;36879;51.416;6.678;2023-04-25T14:48:44;4.93;;;1.30;;
50900;SDS011;36879;51.416;6.678;2023-04-25T14:51:11;4.53;;;1.45;;
50900;SDS011;36879;51.416;6.678;2023-04-25T14:53:37;4.68;;;1.73;;